createdAt,value
2022-11-24T00:02:28.869Z,2.46
2022-11-24T00:05:01.542Z,2.52
2022-11-24T00:07:34.356Z,2.54
2022-11-24T00:10:07.397Z,2.54
2022-11-24T00:12:39.879Z,2.57
2022-11-24T00:15:13.859Z,2.59
2022-11-24T00:17:46.383Z,2.59
2022-11-24T00:20:18.990Z,2.61
2022-11-24T00:22:51.368Z,2.62
2022-11-24T00:25:23.813Z,2.62
2022-11-24T00:27:56.299Z,2.59
2022-11-24T00:30:30.149Z,2.60
2022-11-24T00:33:02.809Z,2.62
2022-11-24T00:35:35.349Z,2.63
2022-11-24T00:38:07.889Z,2.63
2022-11-24T00:40:40.268Z,2.58
2022-11-24T00:43:12.777Z,2.67
2022-11-24T00:45:46.806Z,2.67
2022-11-24T00:48:19.496Z,2.67
2022-11-24T00:50:59.349Z,2.69
2022-11-24T00:53:32.253Z,2.66
2022-11-24T00:56:05.696Z,2.65
2022-11-24T00:58:38.752Z,2.70
2022-11-24T01:01:14.180Z,2.65
2022-11-24T01:03:49.584Z,2.69
2022-11-24T01:06:24.227Z,2.68
2022-11-24T01:08:57.789Z,2.68
2022-11-24T01:11:50.790Z,2.68
2022-11-24T01:14:24.597Z,2.66
2022-11-24T01:16:58.620Z,2.65
2022-11-24T01:19:31.034Z,2.66
2022-11-24T01:22:03.491Z,2.64
2022-11-24T01:24:36.123Z,2.66
2022-11-24T01:27:09.029Z,2.67
2022-11-24T01:29:41.531Z,2.67
2022-11-24T01:32:15.274Z,2.67
2022-11-24T01:34:47.676Z,2.68
2022-11-24T01:37:20.163Z,2.67
2022-11-24T01:39:52.685Z,2.57
2022-11-24T01:42:25.172Z,2.63
2022-11-24T01:45:31.013Z,2.68
2022-11-24T01:48:10.151Z,2.67
2022-11-24T01:50:43.778Z,2.68
2022-11-24T01:53:16.209Z,2.63
2022-11-24T01:55:49.105Z,2.66
2022-11-24T01:58:27.352Z,2.62
2022-11-24T02:01:00.226Z,2.55
2022-11-24T02:03:38.405Z,2.60
2022-11-24T02:06:13.739Z,2.68
2022-11-24T02:08:52.147Z,2.65
2022-11-24T02:11:28.408Z,2.69
2022-11-24T02:14:01.606Z,2.68
2022-11-24T02:16:35.800Z,2.69
2022-11-24T02:19:18.455Z,2.69
2022-11-24T02:21:51.112Z,2.68
2022-11-24T02:24:31.576Z,2.63
2022-11-24T02:27:05.554Z,2.68
2022-11-24T02:29:38.414Z,2.71
2022-11-24T02:32:11.924Z,2.71
2022-11-24T02:34:44.294Z,2.72
2022-11-24T02:37:16.800Z,2.73
2022-11-24T02:39:49.387Z,2.74
2022-11-24T02:42:24.260Z,2.73
2022-11-24T02:45:00.510Z,2.73
2022-11-24T02:47:32.893Z,2.71
2022-11-24T02:50:06.211Z,2.71
2022-11-24T02:52:38.830Z,2.61
2022-11-24T02:55:11.479Z,2.67
2022-11-24T02:57:46.510Z,2.69
2022-11-24T03:00:19.522Z,2.66
2022-11-24T03:02:52.445Z,2.69
2022-11-24T03:05:24.866Z,2.69
2022-11-24T03:07:57.432Z,2.64
2022-11-24T03:10:29.969Z,2.66
2022-11-24T03:13:03.785Z,2.63
2022-11-24T03:15:36.572Z,2.58
2022-11-24T03:18:09.042Z,2.57
2022-11-24T03:20:41.477Z,2.59
2022-11-24T03:23:14.208Z,2.59
2022-11-24T03:25:46.778Z,2.55
2022-11-24T03:28:20.556Z,2.57
2022-11-24T03:30:53.043Z,2.58
2022-11-24T03:33:25.598Z,2.57
2022-11-24T03:35:58.040Z,2.58
2022-11-24T03:38:30.472Z,2.55
2022-11-24T03:41:03.017Z,2.54
2022-11-24T03:43:43.181Z,2.42
2022-11-24T03:46:16.362Z,2.54
2022-11-24T03:48:48.823Z,2.51
2022-11-24T03:51:21.650Z,2.52
2022-11-24T03:53:54.220Z,2.52
2022-11-24T03:56:26.640Z,2.53
2022-11-24T03:59:00.639Z,2.55
2022-11-24T04:04:05.982Z,2.56
2022-11-24T04:06:38.588Z,2.55
2022-11-24T04:09:11.193Z,2.56
2022-11-24T04:12:02.012Z,2.57
2022-11-24T04:14:36.232Z,2.57
2022-11-24T04:17:09.300Z,2.57
2022-11-24T04:19:41.794Z,2.57
2022-11-24T04:22:14.249Z,2.57
2022-11-24T04:24:46.752Z,2.59
2022-11-24T04:27:19.224Z,2.60
2022-11-24T04:29:53.033Z,2.60
2022-11-24T04:32:25.739Z,2.60
2022-11-24T04:34:58.433Z,2.57
2022-11-24T04:37:30.965Z,2.57
2022-11-24T04:40:04.523Z,2.51
2022-11-24T04:42:37.202Z,2.60
2022-11-24T04:45:11.460Z,2.58
2022-11-24T04:47:43.935Z,2.62
2022-11-24T04:50:17.367Z,2.63
2022-11-24T04:52:49.999Z,2.57
2022-11-24T04:55:22.627Z,2.64
2022-11-24T04:57:55.261Z,2.66
2022-11-24T05:00:29.251Z,2.64
2022-11-24T05:03:01.900Z,2.66
2022-11-24T05:05:34.413Z,2.52
2022-11-24T05:08:06.878Z,2.68
2022-11-24T05:10:40.249Z,2.67
2022-11-24T05:13:13.914Z,2.67
2022-11-24T05:15:48.488Z,2.68
2022-11-24T05:18:20.944Z,2.69
2022-11-24T05:20:53.420Z,2.67
2022-11-24T05:23:26.664Z,2.68
2022-11-24T05:26:01.099Z,2.68
2022-11-24T05:28:33.821Z,2.68
2022-11-24T05:31:07.914Z,2.69
2022-11-24T05:33:40.993Z,2.68
2022-11-24T05:36:33.565Z,2.65
2022-11-24T05:39:05.984Z,2.68
2022-11-24T05:41:38.543Z,2.67
2022-11-24T05:44:11.137Z,2.66
2022-11-24T05:46:45.169Z,2.62
2022-11-24T05:49:17.717Z,2.64
2022-11-24T05:51:50.119Z,2.66
2022-11-24T05:54:22.651Z,2.66
2022-11-24T05:56:56.267Z,2.64
2022-11-24T05:59:28.764Z,2.66
2022-11-24T06:02:03.165Z,2.58
2022-11-24T06:04:35.972Z,2.69
2022-11-24T06:07:11.532Z,2.69
2022-11-24T06:09:44.170Z,2.69
2022-11-24T06:12:16.594Z,2.67
2022-11-24T06:14:49.122Z,2.70
2022-11-24T06:17:23.089Z,2.72
2022-11-24T06:19:55.590Z,2.73
2022-11-24T06:22:28.099Z,2.68
2022-11-24T06:25:00.632Z,2.72
2022-11-24T06:27:33.266Z,2.74
2022-11-24T06:30:06.789Z,2.70
2022-11-24T06:32:49.097Z,2.75
2022-11-24T06:35:22.150Z,2.76
2022-11-24T06:37:55.026Z,2.75
2022-11-24T06:40:27.440Z,2.75
2022-11-24T06:42:59.928Z,2.72
2022-11-24T06:45:32.474Z,2.77
2022-11-24T06:48:06.832Z,2.73
2022-11-24T06:50:39.428Z,2.81
2022-11-24T06:53:12.781Z,2.80
2022-11-24T06:55:46.411Z,2.81
2022-11-24T06:58:19.076Z,2.84
2022-11-24T07:00:52.162Z,2.80
2022-11-24T07:03:26.229Z,2.83
2022-11-24T07:08:32.184Z,2.81
2022-11-24T07:11:06.091Z,2.88
2022-11-24T07:13:39.053Z,2.89
2022-11-24T07:16:16.264Z,2.90
2022-11-24T07:18:52.130Z,2.82
2022-11-24T07:21:25.637Z,2.79
2022-11-24T07:23:58.843Z,2.83
2022-11-24T07:26:31.384Z,2.84
2022-11-24T07:29:04.767Z,2.84
2022-11-24T07:31:37.313Z,2.85
2022-11-24T07:34:11.249Z,2.87
2022-11-24T07:36:45.221Z,2.87
2022-11-24T07:39:17.995Z,2.88
2022-11-24T07:41:50.428Z,2.88
2022-11-24T07:44:22.843Z,2.84
2022-11-24T07:46:55.658Z,2.86
2022-11-24T07:49:29.624Z,2.94
2022-11-24T07:52:02.109Z,2.92
2022-11-24T07:54:34.830Z,2.88
2022-11-24T07:57:07.575Z,2.86
2022-11-24T07:59:40.231Z,2.81
2022-11-24T08:02:13.720Z,2.85
2022-11-24T08:04:47.729Z,2.85
2022-11-24T08:07:20.317Z,2.86
2022-11-24T08:09:52.949Z,2.86
2022-11-24T08:12:25.366Z,2.86
2022-11-24T08:14:57.888Z,2.87
2022-11-24T08:17:30.713Z,2.88
2022-11-24T08:20:05.631Z,2.87
2022-11-24T08:22:38.145Z,2.84
2022-11-24T08:25:11.059Z,2.84
2022-11-24T08:27:43.533Z,2.84
2022-11-24T08:30:16.751Z,2.76
2022-11-24T08:32:49.149Z,2.83
2022-11-24T08:35:22.973Z,2.80
2022-11-24T08:37:58.156Z,2.79
2022-11-24T08:40:35.130Z,2.73
2022-11-24T08:43:07.565Z,2.74
2022-11-24T08:45:41.900Z,2.70
2022-11-24T08:48:14.636Z,2.66
2022-11-24T08:50:48.562Z,2.63
2022-11-24T08:53:20.946Z,2.61
2022-11-24T08:55:53.427Z,2.54
2022-11-24T08:58:26.067Z,2.58
2022-11-24T09:01:07.249Z,2.60
2022-11-24T09:03:43.522Z,2.63
2022-11-24T09:06:25.231Z,2.62
2022-11-24T09:08:59.045Z,2.62
2022-11-24T09:11:34.148Z,2.62
2022-11-24T09:14:06.682Z,2.60
2022-11-24T09:16:39.286Z,2.57
2022-11-24T09:19:12.263Z,2.54
2022-11-24T09:21:46.205Z,2.54
2022-11-24T09:24:18.757Z,2.54
2022-11-24T09:26:51.333Z,2.48
2022-11-24T09:29:23.995Z,2.41
2022-11-24T09:31:57.927Z,2.41
2022-11-24T09:34:33.437Z,2.39
2022-11-24T09:37:07.258Z,2.39
2022-11-24T09:39:39.829Z,2.39
2022-11-24T09:42:17.454Z,2.41
2022-11-24T09:45:15.210Z,2.42
2022-11-24T09:47:59.412Z,2.46
2022-11-24T09:50:34.350Z,2.48
2022-11-24T09:53:16.130Z,2.48
2022-11-24T09:55:50.768Z,2.51
2022-11-24T09:58:35.872Z,2.53
2022-11-24T10:01:14.454Z,2.49
2022-11-24T10:03:49.728Z,2.52
2022-11-24T10:06:26.142Z,2.55
2022-11-24T10:09:21.455Z,2.55
2022-11-24T10:12:03.769Z,2.56
2022-11-24T10:15:11.217Z,2.50
2022-11-24T10:17:59.268Z,2.39
2022-11-24T10:20:49.073Z,2.33
2022-11-24T10:23:39.754Z,2.27
2022-11-24T10:26:19.500Z,2.28
2022-11-24T10:28:54.872Z,2.24
2022-11-24T10:31:33.962Z,2.24
2022-11-24T10:34:14.323Z,2.23
2022-11-24T10:36:56.900Z,2.26
2022-11-24T10:39:37.356Z,2.26
2022-11-24T10:42:18.786Z,2.24
2022-11-24T10:45:00.584Z,2.26
2022-11-24T10:47:33.270Z,2.27
2022-11-24T10:50:15.304Z,2.29
2022-11-24T10:52:55.524Z,2.27
2022-11-24T10:56:00.209Z,2.26
2022-11-24T10:58:38.229Z,2.24
2022-11-24T11:01:27.627Z,2.20
2022-11-24T11:04:01.785Z,2.21
2022-11-24T11:06:34.983Z,2.16
2022-11-24T11:09:19.879Z,2.20
2022-11-24T11:11:54.078Z,2.24
2022-11-24T11:14:32.324Z,2.25
2022-11-24T11:17:32.968Z,2.23
2022-11-24T11:20:16.761Z,2.19
2022-11-24T11:22:50.866Z,2.20
2022-11-24T11:25:27.323Z,2.16
2022-11-24T11:28:28.653Z,2.15
2022-11-24T11:31:22.634Z,2.10
2022-11-24T11:34:08.253Z,2.03
2022-11-24T11:36:45.448Z,2.11
2022-11-24T11:39:24.567Z,2.12
2022-11-24T11:42:07.826Z,2.12
2022-11-24T11:44:47.175Z,2.12
2022-11-24T11:47:30.265Z,2.13
2022-11-24T11:50:02.984Z,2.08
2022-11-24T11:53:02.024Z,2.08
2022-11-24T11:55:49.674Z,2.07
2022-11-24T11:58:51.321Z,2.07
2022-11-24T12:01:42.386Z,2.01
2022-11-24T12:04:23.370Z,2.03
2022-11-24T12:07:34.192Z,1.98
2022-11-24T12:10:17.712Z,1.85
2022-11-24T12:13:03.484Z,1.91
2022-11-24T12:15:39.279Z,1.90
2022-11-24T12:18:55.939Z,1.86
2022-11-24T12:21:27.084Z,1.90
2022-11-24T12:24:10.533Z,1.89
2022-11-24T12:26:48.492Z,1.90
2022-11-24T12:29:55.803Z,1.89
2022-11-24T12:32:49.642Z,1.87
2022-11-24T12:35:29.059Z,1.85
2022-11-24T12:38:21.767Z,1.83
2022-11-24T12:44:04.665Z,1.76
2022-11-24T12:46:48.611Z,1.73
2022-11-24T12:49:28.877Z,1.69
2022-11-24T12:52:06.492Z,1.71
2022-11-24T12:54:41.334Z,1.68
2022-11-24T12:57:18.920Z,1.62
2022-11-24T12:59:59.153Z,1.69
2022-11-24T13:02:57.531Z,1.70
2022-11-24T13:05:36.793Z,1.71
2022-11-24T13:08:09.665Z,1.71
2022-11-24T13:11:00.100Z,1.71
2022-11-24T13:13:58.600Z,1.66
2022-11-24T13:16:37.209Z,1.66
2022-11-24T13:19:21.193Z,1.61
2022-11-24T13:22:23.389Z,1.63
2022-11-24T13:25:21.448Z,1.63
2022-11-24T13:27:58.145Z,1.61
2022-11-24T13:31:07.656Z,1.59
2022-11-24T13:33:40.623Z,1.57
2022-11-24T13:36:48.303Z,1.57
2022-11-24T13:39:22.192Z,1.53
2022-11-24T13:42:03.739Z,1.56
2022-11-24T13:44:52.052Z,1.50
2022-11-24T13:47:33.505Z,1.50
2022-11-24T13:50:09.161Z,1.45
2022-11-24T13:52:47.845Z,1.44
2022-11-24T13:55:25.371Z,1.41
2022-11-24T13:58:02.664Z,1.41
2022-11-24T14:00:58.355Z,1.41
2022-11-24T14:03:36.640Z,1.39
2022-11-24T14:06:16.757Z,1.37
2022-11-24T14:08:49.710Z,1.34
2022-11-24T14:11:23.063Z,1.33
2022-11-24T14:13:55.938Z,1.30
2022-11-24T14:16:30.098Z,1.23
2022-11-24T14:19:10.141Z,1.24
2022-11-24T14:21:44.617Z,1.22
2022-11-24T14:24:23.984Z,1.18
2022-11-24T14:26:56.531Z,1.18
2022-11-24T14:29:33.208Z,1.14
2022-11-24T14:32:17.117Z,1.13
2022-11-24T14:34:51.024Z,1.11
2022-11-24T14:37:23.766Z,1.08
2022-11-24T14:39:56.384Z,1.07
2022-11-24T14:42:29.172Z,1.01
2022-11-24T14:45:04.065Z,1.04
2022-11-24T14:47:45.401Z,0.97
2022-11-24T14:50:23.050Z,0.88
2022-11-24T14:52:57.760Z,1.01
2022-11-24T14:55:31.816Z,0.93
2022-11-24T14:58:20.539Z,0.97
2022-11-24T15:01:09.234Z,0.98
2022-11-24T15:03:43.100Z,0.85
2022-11-24T15:06:18.849Z,0.97
2022-11-24T15:08:51.450Z,0.95
2022-11-24T15:11:24.135Z,0.85
2022-11-24T15:13:56.739Z,0.85
2022-11-24T15:16:30.366Z,0.72
2022-11-24T15:19:06.775Z,0.89
2022-11-24T15:21:39.206Z,0.87
2022-11-24T15:24:17.280Z,0.87
2022-11-24T15:26:49.703Z,0.88
2022-11-24T15:29:22.544Z,0.88
2022-11-24T15:31:55.057Z,0.85
2022-11-24T15:34:28.962Z,0.86
2022-11-24T15:37:01.529Z,0.85
2022-11-24T15:39:34.249Z,0.85
2022-11-24T15:42:08.536Z,0.82
2022-11-24T15:44:41.229Z,0.75
2022-11-24T15:47:13.896Z,0.84
2022-11-24T15:49:47.978Z,0.84
2022-11-24T15:52:20.830Z,0.81
2022-11-24T15:54:56.395Z,0.78
2022-11-24T15:57:29.023Z,0.75
2022-11-24T16:00:01.840Z,0.80
2022-11-24T16:02:44.722Z,0.79
2022-11-24T16:05:19.935Z,0.73
2022-11-24T16:07:52.635Z,0.68
2022-11-24T16:10:27.999Z,0.75
2022-11-24T16:13:00.575Z,0.74
2022-11-24T16:15:33.146Z,0.58
2022-11-24T16:18:06.442Z,0.64
2022-11-24T16:20:40.608Z,0.65
2022-11-24T16:23:13.022Z,0.62
2022-11-24T16:25:45.549Z,0.49
2022-11-24T16:28:18.299Z,0.55
2022-11-24T16:30:51.186Z,0.59
2022-11-24T16:33:23.723Z,0.53
2022-11-24T16:35:57.996Z,0.41
2022-11-24T16:38:30.528Z,0.53
2022-11-24T16:41:03.142Z,0.58
2022-11-24T16:43:35.569Z,0.56
2022-11-24T16:46:18.201Z,0.55
2022-11-24T16:48:52.113Z,0.48
2022-11-24T16:51:31.356Z,0.57
2022-11-24T16:54:06.878Z,0.56
2022-11-24T16:56:39.606Z,0.55
2022-11-24T16:59:12.220Z,0.38
2022-11-24T17:01:46.764Z,0.54
2022-11-24T17:04:19.446Z,0.45
2022-11-24T17:06:53.329Z,0.39
2022-11-24T17:09:25.852Z,0.55
2022-11-24T17:11:58.470Z,0.42
2022-11-24T17:14:31.027Z,0.47
2022-11-24T17:17:06.883Z,0.57
2022-11-24T17:19:39.463Z,0.53
2022-11-24T17:22:13.410Z,0.48
2022-11-24T17:24:45.878Z,0.50
2022-11-24T17:27:18.479Z,0.48
2022-11-24T17:29:51.102Z,0.46
2022-11-24T17:32:23.739Z,0.42
2022-11-24T17:34:56.299Z,0.37
2022-11-24T17:37:32.318Z,0.38
2022-11-24T17:40:27.327Z,0.31
2022-11-24T17:43:00.039Z,0.31
2022-11-24T17:45:36.012Z,0.28
2022-11-24T17:48:08.647Z,0.27
2022-11-24T17:50:41.268Z,0.26
2022-11-24T17:53:18.686Z,-0.18
2022-11-24T17:55:51.667Z,0.22
2022-11-24T17:58:26.156Z,0.18
2022-11-24T18:00:59.324Z,0.19
2022-11-24T18:03:32.839Z,0.25
2022-11-24T18:19:34.716Z,0.22
2022-11-24T18:22:07.388Z,0.20
2022-11-24T18:24:40.248Z,0.20
2022-11-24T18:27:12.879Z,0.23
2022-11-24T18:29:45.536Z,0.27
2022-11-24T18:32:18.307Z,0.30
2022-11-24T18:34:52.304Z,0.34
2022-11-24T18:37:24.869Z,0.33
2022-11-24T18:39:57.559Z,0.34
2022-11-24T18:42:30.164Z,0.30
2022-11-24T18:45:02.571Z,0.24
2022-11-24T18:47:35.656Z,0.19
2022-11-24T18:50:10.401Z,0.14
2022-11-24T18:52:43.537Z,0.11
2022-11-24T18:55:16.197Z,0.11
2022-11-24T18:57:48.720Z,0.10
2022-11-24T19:00:21.793Z,0.12
2022-11-24T19:02:54.311Z,0.08
2022-11-24T19:05:28.246Z,0.00
2022-11-24T19:08:00.784Z,-0.05
2022-11-24T19:10:36.227Z,0.07
2022-11-24T19:13:08.850Z,-0.04
2022-11-24T19:15:41.285Z,0.07
2022-11-24T19:18:13.785Z,0.06
2022-11-24T19:20:48.230Z,0.11
2022-11-24T19:23:20.851Z,0.11
2022-11-24T19:25:53.353Z,0.13
2022-11-24T19:28:25.786Z,0.05
2022-11-24T19:31:00.965Z,0.09
2022-11-24T19:33:34.358Z,0.11
2022-11-24T19:36:12.817Z,0.11
2022-11-24T19:38:50.510Z,0.06
2022-11-24T19:41:26.988Z,0.00
2022-11-24T19:44:00.144Z,-0.05
2022-11-24T19:46:33.657Z,-0.04
2022-11-24T19:49:08.380Z,-0.04
2022-11-24T19:51:42.528Z,-0.02
2022-11-24T19:54:15.278Z,-0.14
2022-11-24T19:56:47.741Z,-0.05
2022-11-24T19:59:23.607Z,-0.18
2022-11-24T20:01:56.845Z,-0.25
2022-11-24T20:04:29.698Z,-0.18
2022-11-24T20:07:03.547Z,-0.14
2022-11-24T20:09:36.114Z,-0.15
2022-11-24T20:12:10.010Z,-0.15
2022-11-24T20:14:42.540Z,-0.22
2022-11-24T20:17:15.083Z,-0.31
2022-11-24T20:19:47.531Z,-0.38
2022-11-24T20:22:21.627Z,-0.32
2022-11-24T20:24:54.141Z,-0.33
2022-11-24T20:27:26.677Z,-0.43
2022-11-24T20:29:59.069Z,-0.32
2022-11-24T20:32:31.725Z,-0.49
2022-11-24T20:35:04.527Z,-0.33
2022-11-24T20:37:38.583Z,-0.31
2022-11-24T20:40:11.842Z,-0.28
2022-11-24T20:42:45.592Z,-0.27
2022-11-24T20:45:18.050Z,-0.30
2022-11-24T20:47:50.595Z,-0.35
2022-11-24T20:50:23.166Z,-0.36
2022-11-24T20:52:57.352Z,-0.39
2022-11-24T20:55:32.051Z,-0.38
2022-11-24T20:58:04.560Z,-0.39
2022-11-24T21:00:37.119Z,-0.42
2022-11-24T21:03:09.906Z,-0.41
2022-11-24T21:05:42.340Z,-0.47
2022-11-24T21:08:17.915Z,-0.57
2022-11-24T21:10:54.814Z,-0.55
2022-11-24T21:13:28.494Z,-0.54
2022-11-24T21:16:01.490Z,-0.53
2022-11-24T21:18:34.160Z,-0.57
2022-11-24T21:21:07.066Z,-0.49
2022-11-24T21:23:41.436Z,-0.48
2022-11-24T21:26:17.102Z,-0.47
2022-11-24T21:28:49.895Z,-0.48
2022-11-24T21:31:23.100Z,-0.50
2022-11-24T21:33:55.875Z,-0.49
2022-11-24T21:36:28.413Z,-0.52
2022-11-24T21:39:03.789Z,-0.48
2022-11-24T21:41:36.423Z,-0.48
2022-11-24T21:44:10.673Z,-0.55
2022-11-24T21:46:48.261Z,-0.52
2022-11-24T21:49:23.522Z,-0.54
2022-11-24T21:51:56.333Z,-0.59
2022-11-24T21:54:30.455Z,-0.64
2022-11-24T21:57:02.961Z,-0.65
2022-11-24T21:59:35.511Z,-0.60
2022-11-24T22:02:13.204Z,-0.61
2022-11-24T22:04:46.174Z,-0.66
2022-11-24T22:07:18.690Z,-0.62
2022-11-24T22:09:52.559Z,-0.67
2022-11-24T22:12:25.104Z,-0.66
2022-11-24T22:14:57.726Z,-0.69
2022-11-24T22:17:31.073Z,-0.66
2022-11-24T22:20:03.964Z,-0.69
2022-11-24T22:22:36.434Z,-0.74
2022-11-24T22:25:10.533Z,-0.74
2022-11-24T22:27:43.039Z,-0.79
2022-11-24T22:30:15.994Z,-0.86
2022-11-24T22:32:48.435Z,-0.89
2022-11-24T22:35:21.217Z,-0.88
2022-11-24T22:37:53.728Z,-0.85
2022-11-24T22:40:27.533Z,-0.81
2022-11-24T22:43:00.334Z,-0.79
2022-11-24T22:45:35.499Z,-0.87
2022-11-24T22:48:07.983Z,-0.71
2022-11-24T22:50:40.425Z,-0.71
2022-11-24T22:53:12.891Z,-0.74
2022-11-24T22:55:46.980Z,-0.78
2022-11-24T22:58:19.459Z,-0.87
2022-11-24T23:00:52.100Z,-0.80
2022-11-24T23:03:24.675Z,-0.81
2022-11-24T23:05:59.700Z,-0.80
2022-11-24T23:08:33.566Z,-0.80
2022-11-24T23:11:09.439Z,-0.91
2022-11-24T23:13:42.792Z,-0.90
2022-11-24T23:16:17.333Z,-0.93
2022-11-24T23:18:53.894Z,-0.99
2022-11-24T23:21:28.804Z,-0.98
2022-11-24T23:24:03.093Z,-0.98
2022-11-24T23:26:38.769Z,-1.11
2022-11-24T23:29:11.965Z,-1.01
2022-11-24T23:31:44.402Z,-1.16
2022-11-24T23:34:17.071Z,-1.05
2022-11-24T23:36:49.793Z,-1.13
2022-11-24T23:39:22.273Z,-1.09
2022-11-24T23:41:56.132Z,-1.15
2022-11-24T23:44:28.646Z,-1.11
2022-11-24T23:47:01.417Z,-1.17
2022-11-24T23:49:33.872Z,-1.20
2022-11-24T23:52:06.339Z,-1.12
2022-11-24T23:54:38.852Z,-1.19
2022-11-24T23:57:12.981Z,-1.11
2022-11-24T23:59:45.515Z,-1.15
